GEC478 NZAA-YSSY
Flight info
| Callsign | GEC478 |
|---|---|
| Flight time | N/A |
| Altitude | 36000 |
| Route | VELMO DCT 38S163E DCT PLUGA DCT RIKNI N774 MARLN |
| Aircraft | MD11/H-SDE1E2E3FGHIJ2J3J4J5M1RWXY/LB1D1 |
Departure
| Time | 2026-05-07 16:45 |
|---|---|
| Airport | Auckland International Airport (NZAA) |
Arrival
| Time | N/A |
|---|---|
| Airport | Sydney Kingsford Smith International Airport (YSSY) |
| Time | Latitude | Longitude | Altitude | Speed | Heading |
|---|---|---|---|---|---|
| 2026-05-07 16:32 | -37.00974 | 174.77814 | 44 ft | 0 kts | 340° |
| 2026-05-07 16:37 | -37.00965 | 174.77809 | 43 ft | 4 kts | 338° |
| 2026-05-07 16:38 | -37.00967 | 174.77812 | 43 ft | 4 kts | 307° |
| 2026-05-07 16:38 | -37.00974 | 174.77814 | 71 ft | 3 kts | 256° |
| 2026-05-07 16:38 | -37.00970 | 174.77834 | 39 ft | 4 kts | 265° |
| 2026-05-07 16:38 | -37.00971 | 174.77865 | 40 ft | 4 kts | 294° |
| 2026-05-07 16:39 | -37.00982 | 174.77885 | 42 ft | 4 kts | 341° |
| 2026-05-07 16:39 | -37.01007 | 174.77891 | 42 ft | 4 kts | 345° |
| 2026-05-07 16:39 | -37.01022 | 174.77895 | 41 ft | 4 kts | 291° |
| 2026-05-07 16:39 | -37.01026 | 174.77888 | 43 ft | 0 kts | 250° |
| 2026-05-07 16:42 | -37.01031 | 174.77871 | 43 ft | 7 kts | 250° |
| 2026-05-07 16:42 | -37.01053 | 174.77792 | 43 ft | 12 kts | 250° |
| 2026-05-07 16:42 | -37.01116 | 174.77716 | 43 ft | 15 kts | 202° |
| 2026-05-07 16:42 | -37.01215 | 174.77644 | 43 ft | 18 kts | 190° |
| 2026-05-07 16:43 | -37.01293 | 174.77591 | 43 ft | 11 kts | 232° |
| 2026-05-07 16:43 | -37.01325 | 174.77502 | 43 ft | 13 kts | 248° |
| 2026-05-07 16:43 | -37.01359 | 174.77379 | 43 ft | 20 kts | 252° |
| 2026-05-07 16:43 | -37.01408 | 174.77185 | 43 ft | 18 kts | 251° |
| 2026-05-07 16:44 | -37.01475 | 174.77109 | 40 ft | 12 kts | 197° |
| 2026-05-07 16:44 | -37.01584 | 174.77083 | 39 ft | 13 kts | 176° |
| 2026-05-07 16:44 | -37.01615 | 174.77104 | 39 ft | 4 kts | 133° |
| 2026-05-07 16:44 | -37.01615 | 174.77130 | 39 ft | 9 kts | 86° |
| 2026-05-07 16:45 | -37.01545 | 174.77396 | 41 ft | 83 kts | 70° |
| 2026-05-07 16:45 | -37.01229 | 174.78533 | 95 ft | 183 kts | 69° |
| 2026-05-07 16:45 | -37.00833 | 174.80139 | 1315 ft | 194 kts | 69° |
| 2026-05-07 16:45 | -37.00465 | 174.81698 | 3092 ft | 183 kts | 67° |
| 2026-05-07 16:46 | -37.00211 | 174.82726 | 3979 ft | 199 kts | 67° |
| 2026-05-07 16:46 | -36.99573 | 174.85160 | 4954 ft | 240 kts | 68° |
| 2026-05-07 16:46 | -36.99004 | 174.87231 | 5528 ft | 261 kts | 66° |
| 2026-05-07 16:46 | -36.98369 | 174.89367 | 6954 ft | 264 kts | 66° |
| 2026-05-07 16:47 | -36.97724 | 174.91559 | 8354 ft | 273 kts | 66° |
| 2026-05-07 16:47 | -36.97283 | 174.93073 | 9017 ft | 285 kts | 66° |
| 2026-05-07 16:47 | -36.96612 | 174.95416 | 10184 ft | 286 kts | 67° |
| 2026-05-07 16:47 | -36.95942 | 174.97800 | 11454 ft | 294 kts | 68° |
| 2026-05-07 16:48 | -36.95503 | 175.00347 | 12701 ft | 306 kts | 84° |
| 2026-05-07 16:48 | -36.95873 | 175.03014 | 13971 ft | 322 kts | 111° |
| 2026-05-07 16:48 | -36.97229 | 175.05303 | 15070 ft | 333 kts | 139° |
| 2026-05-07 16:48 | -36.99242 | 175.06783 | 16212 ft | 340 kts | 160° |
| 2026-05-07 16:49 | -37.01520 | 175.07600 | 17378 ft | 343 kts | 174° |
| 2026-05-07 16:49 | -37.03987 | 175.07636 | 17758 ft | 371 kts | 195° |
| 2026-05-07 16:49 | -37.06408 | 175.06412 | 17905 ft | 394 kts | 218° |
| 2026-05-07 16:49 | -37.08382 | 175.04014 | 18519 ft | 398 kts | 238° |
| 2026-05-07 16:50 | -37.09654 | 175.00962 | 19376 ft | 395 kts | 254° |
| 2026-05-07 16:50 | -37.10367 | 174.97635 | 20183 ft | 397 kts | 261° |
| 2026-05-07 16:50 | -37.10937 | 174.94229 | 21031 ft | 401 kts | 261° |
| 2026-05-07 16:50 | -37.11574 | 174.90792 | 21906 ft | 407 kts | 259° |
| 2026-05-07 16:51 | -37.12321 | 174.87341 | 22808 ft | 413 kts | 257° |
| 2026-05-07 16:51 | -37.13168 | 174.83881 | 23718 ft | 419 kts | 255° |
| 2026-05-07 16:51 | -37.14166 | 174.80466 | 24495 ft | 425 kts | 252° |
| 2026-05-07 16:51 | -37.15299 | 174.77019 | 25293 ft | 431 kts | 251° |
| 2026-05-07 16:52 | -37.16499 | 174.73536 | 26099 ft | 436 kts | 250° |
| 2026-05-07 16:52 | -37.17725 | 174.70028 | 26901 ft | 442 kts | 250° |
| 2026-05-07 16:52 | -37.18965 | 174.66477 | 27703 ft | 447 kts | 250° |
| 2026-05-07 16:52 | -37.20214 | 174.62874 | 28454 ft | 453 kts | 250° |
| 2026-05-07 16:53 | -37.21475 | 174.59216 | 29212 ft | 459 kts | 250° |
| 2026-05-07 16:53 | -37.22744 | 174.55520 | 29958 ft | 464 kts | 250° |
| 2026-05-07 16:53 | -37.24026 | 174.51770 | 30580 ft | 470 kts | 250° |
| 2026-05-07 16:53 | -37.25319 | 174.47987 | 31241 ft | 471 kts | 250° |
| 2026-05-07 16:54 | -37.26607 | 174.44212 | 32023 ft | 469 kts | 250° |
| 2026-05-07 16:54 | -37.27879 | 174.40503 | 32790 ft | 467 kts | 250° |
| 2026-05-07 16:54 | -37.29169 | 174.36769 | 33571 ft | 465 kts | 250° |
| 2026-05-07 16:54 | -37.30463 | 174.33038 | 34291 ft | 463 kts | 250° |
| 2026-05-07 16:55 | -37.31751 | 174.29335 | 34837 ft | 462 kts | 250° |
| 2026-05-07 16:55 | -37.33029 | 174.25664 | 35208 ft | 455 kts | 250° |
| 2026-05-07 16:55 | -37.34297 | 174.22028 | 35582 ft | 452 kts | 250° |
| 2026-05-07 16:55 | -37.35548 | 174.18456 | 35926 ft | 451 kts | 250° |
| 2026-05-07 16:56 | -37.36815 | 174.14843 | 36053 ft | 450 kts | 250° |
| 2026-05-07 16:56 | -37.38928 | 174.08822 | 36086 ft | 451 kts | 250° |